Time;durP1;ratioP1;P1;durP2;ratioP2;P2;SDS_P1;SDS_P2;PMS_P1;PMS_P2;Temp;Humidity;BMP_temperature;BMP_pressure;BME280_temperature;BME280_humidity;BME280_pressure;Samples;Min_cycle;Max_cycle;Signal;HPM_P1;HPM_P2
2022/06/20 00:00:42;;;;;;;4.55;3.05;;;;;;;20.91;53.15;100241.50;5047161;28;20060;-21
2022/06/20 00:03:33;;;;;;;4.90;3.08;;;;;;;20.87;52.95;100213.97;5049877;28;20098;-21
2022/06/20 00:05:58;;;;;;;4.47;2.95;;;;;;;20.87;53.75;100248.81;5056288;28;20039;-20
2022/06/20 00:08:24;;;;;;;5.28;2.70;;;;;;;20.80;53.86;100268.06;5032680;28;20036;-20
2022/06/20 00:10:51;;;;;;;7.88;3.08;;;;;;;20.80;54.27;100279.63;5063460;28;20186;-20
2022/06/20 00:13:26;;;;;;;9.35;3.28;;;;;;;20.82;53.95;100300.97;5066842;28;20029;-21
2022/06/20 00:15:52;;;;;;;6.07;3.28;;;;;;;20.71;53.44;100315.84;5063490;28;20025;-20
2022/06/20 00:18:17;;;;;;;6.50;2.95;;;;;;;20.68;53.55;100320.53;5065831;28;20472;-20
2022/06/20 00:20:43;;;;;;;9.20;3.45;;;;;;;20.69;54.19;100317.75;5061961;28;20047;-21
2022/06/20 00:23:09;;;;;;;4.95;2.72;;;;;;;20.66;54.54;100303.66;5064265;28;20059;-20
2022/06/20 00:25:36;;;;;;;4.43;2.50;;;;;;;20.58;53.40;100277.31;5064476;28;20024;-21
2022/06/20 00:28:02;;;;;;;7.60;2.92;;;;;;;20.51;53.57;100303.63;5050145;28;20082;-20
2022/06/20 00:30:27;;;;;;;5.45;3.00;;;;;;;20.50;53.99;100345.59;5063269;28;20032;-21
2022/06/20 00:32:53;;;;;;;7.53;3.30;;;;;;;20.49;54.55;100471.56;5049150;28;20165;-20
2022/06/20 00:35:18;;;;;;;6.20;3.30;;;;;;;20.38;55.54;100483.72;5044494;28;20067;-20
2022/06/20 00:37:44;;;;;;;7.95;3.35;;;;;;;20.41;56.17;100308.63;5064346;28;20043;-20
2022/06/20 00:41:07;;;;;;;8.13;3.60;;;;;;;20.42;56.08;100290.72;5063858;28;20063;-20
2022/06/20 00:43:39;;;;;;;9.77;3.88;;;;;;;20.37;55.92;100288.31;4982516;28;20070;-21
2022/06/20 00:46:09;;;;;;;8.68;3.80;;;;;;;20.31;56.03;100302.06;4967629;28;20034;-21
2022/06/20 00:48:42;;;;;;;5.00;3.40;;;;;;;20.27;56.42;100349.53;5025947;28;20032;-20
2022/06/20 00:51:20;;;;;;;9.50;3.65;;;;;;;20.25;56.30;100384.44;5053302;28;20024;-21
2022/06/20 00:53:54;;;;;;;6.72;3.42;;;;;;;20.21;56.52;100372.16;5065660;28;20516;-21
2022/06/20 00:56:27;;;;;;;8.45;3.80;;;;;;;20.17;56.18;100359.06;5065734;28;20032;-20
2022/06/20 00:58:58;;;;;;;4.60;3.30;;;;;;;20.16;56.42;100346.59;5064293;28;20032;-21
2022/06/20 01:01:30;;;;;;;6.82;2.88;;;;;;;20.06;56.16;100328.38;5049137;28;20115;-21
2022/06/20 01:04:00;;;;;;;9.32;3.78;;;;;;;20.03;55.79;100312.47;5064017;28;20125;-20
2022/06/20 01:06:33;;;;;;;8.35;3.83;;;;;;;20.03;56.29;100333.00;5043674;28;20024;-21
2022/06/20 01:09:05;;;;;;;6.07;3.47;;;;;;;20.02;56.26;100361.59;5064741;28;20032;-20
2022/06/20 01:11:42;;;;;;;6.93;3.67;;;;;;;19.94;56.06;100361.97;5064491;28;20079;-21
2022/06/20 01:14:26;;;;;;;6.88;3.42;;;;;;;19.88;56.24;100348.94;5063605;28;20023;-20
2022/06/20 01:16:58;;;;;;;6.28;3.20;;;;;;;19.82;55.92;100311.81;5062705;28;20024;-21
2022/06/20 01:20:04;;;;;;;10.02;4.15;;;;;;;19.81;56.52;100315.44;5062845;28;20040;-21
2022/06/20 01:22:48;;;;;;;7.07;3.42;;;;;;;19.75;55.80;100332.69;5063448;28;20111;-21
2022/06/20 01:25:32;;;;;;;7.90;3.90;;;;;;;19.68;56.14;100379.41;5066569;28;20443;-20
2022/06/20 01:27:59;;;;;;;11.52;4.22;;;;;;;19.68;56.60;100385.66;5063828;28;20025;-20
2022/06/20 01:30:27;;;;;;;10.02;3.83;;;;;;;19.63;56.64;100376.13;5049359;28;20489;-21
2022/06/20 01:32:52;;;;;;;7.22;3.60;;;;;;;19.61;56.16;100365.50;5062993;28;20029;-20
2022/06/20 01:37:23;;;;;;;5.85;3.30;;;;;;;19.57;56.96;100378.16;5026853;28;20035;-20
2022/06/20 01:38:08;;;;;;;8.18;3.75;;;;;;;19.55;56.68;100363.16;5046991;28;20031;-20
2022/06/20 01:40:33;;;;;;;6.40;4.25;;;;;;;19.54;56.58;100340.88;5058346;28;20726;-21
2022/06/20 01:42:59;;;;;;;7.22;3.33;;;;;;;19.52;56.74;100348.13;5063129;28;20241;-21
2022/06/20 01:48:12;;;;;;;8.02;3.33;;;;;;;19.48;57.82;100378.66;5055384;28;20095;-20
2022/06/20 01:50:39;;;;;;;10.18;3.92;;;;;;;19.43;57.61;100375.31;5069940;28;20115;-20
2022/06/20 01:53:07;;;;;;;5.55;3.65;;;;;;;19.38;57.71;100366.69;5056407;28;20028;-20
2022/06/20 01:55:33;;;;;;;6.82;3.25;;;;;;;19.31;57.00;100377.69;5067145;28;20016;-21
2022/06/20 01:58:08;;;;;;;7.55;3.85;;;;;;;19.28;57.53;100396.56;5046558;28;20028;-20
2022/06/20 02:00:34;;;;;;;7.25;3.33;;;;;;;19.23;57.14;100380.75;5047317;28;20051;-20
2022/06/20 02:03:03;;;;;;;5.18;3.58;;;;;;;19.24;57.38;100413.69;5030716;28;20109;-20
2022/06/20 02:05:29;;;;;;;5.30;3.50;;;;;;;19.21;57.14;100414.72;5050543;28;20047;-20
2022/06/20 02:07:58;;;;;;;4.72;2.97;;;;;;;19.18;57.19;100403.31;5051768;28;20062;-20
2022/06/20 02:10:32;;;;;;;7.50;3.65;;;;;;;19.17;57.17;100385.56;5051883;28;20029;-20
2022/06/20 02:12:58;;;;;;;9.93;3.75;;;;;;;19.12;57.73;100371.53;5052849;28;20396;-20
2022/06/20 02:15:25;;;;;;;4.75;3.75;;;;;;;19.10;57.87;100383.19;5054572;28;20024;-20
2022/06/20 02:17:51;;;;;;;6.53;4.22;;;;;;;19.07;58.05;100372.63;5052358;28;20028;-20
2022/06/20 02:20:20;;;;;;;9.60;4.80;;;;;;;19.03;58.12;100352.31;5051980;28;20028;-20
2022/06/20 02:22:46;;;;;;;8.43;4.25;;;;;;;19.00;57.94;100349.78;5052824;28;20039;-21
2022/06/20 02:25:15;;;;;;;8.10;4.32;;;;;;;19.00;58.11;100336.44;5051073;28;20025;-21
2022/06/20 02:27:48;;;;;;;6.57;4.20;;;;;;;19.02;57.81;100350.59;5051509;28;20055;-21
2022/06/20 02:30:14;;;;;;;6.80;3.83;;;;;;;18.97;58.31;100363.28;5062818;28;20430;-20
2022/06/20 02:32:43;;;;;;;6.20;3.92;;;;;;;18.94;57.79;100326.06;5061936;28;20059;-20
2022/06/20 02:35:14;;;;;;;8.00;4.20;;;;;;;18.91;57.68;100305.69;5053466;28;20503;-21
2022/06/20 02:37:39;;;;;;;;;;;;;;;18.87;57.51;100327.31;5047058;28;20032;-20
2022/06/20 02:40:08;;;;;;;4.20;3.60;;;;;;;18.88;58.34;100326.38;5068417;28;19920;-21
2022/06/20 02:42:59;;;;;;;7.35;4.13;;;;;;;18.87;57.69;100298.78;5033690;28;20718;-20
2022/06/20 02:45:25;;;;;;;9.55;3.88;;;;;;;18.83;57.69;100281.16;5067976;28;20040;-20
2022/06/20 02:47:56;;;;;;;5.82;4.00;;;;;;;18.84;58.11;100305.13;5052667;28;20047;-21
2022/06/20 02:50:26;;;;;;;5.82;3.45;;;;;;;18.82;58.50;100287.47;5055177;28;20094;-20
2022/06/20 02:53:10;;;;;;;4.03;3.40;;;;;;;18.79;58.50;100264.44;5051348;28;20025;-20
2022/06/20 02:55:36;;;;;;;7.05;4.35;;;;;;;18.73;58.56;100272.75;5049542;28;20036;-20
2022/06/20 02:58:06;;;;;;;8.05;4.07;;;;;;;18.72;57.69;100268.34;5068783;28;20531;-20
2022/06/20 03:00:36;;;;;;;8.95;4.07;;;;;;;18.73;58.09;100256.72;5068625;28;20389;-21
2022/06/20 03:03:09;;;;;;;6.05;3.53;;;;;;;18.71;57.69;100245.25;5068251;28;20055;-21
2022/06/20 03:05:34;;;;;;;5.75;3.90;;;;;;;18.66;57.92;100256.16;5049249;28;20441;-20
2022/06/20 03:08:00;;;;;;;6.22;4.20;;;;;;;18.68;58.35;100250.75;5065830;28;20063;-20
2022/06/20 03:10:35;;;;;;;5.57;3.58;;;;;;;18.65;58.08;100249.13;5067828;28;20052;-21
2022/06/20 03:13:01;;;;;;;7.43;3.47;;;;;;;18.66;59.45;100245.50;5062979;28;20070;-20
2022/06/20 03:15:27;;;;;;;5.97;3.78;;;;;;;18.64;58.13;100251.84;5065822;28;20119;-20
2022/06/20 03:17:53;;;;;;;4.95;3.78;;;;;;;18.63;58.70;100236.75;5066601;28;20111;-20
2022/06/20 03:20:20;;;;;;;5.30;3.55;;;;;;;18.59;58.36;100225.38;5068040;28;20027;-20
2022/06/20 03:23:07;;;;;;;4.75;3.78;;;;;;;18.58;58.28;100229.00;5047725;28;20420;-20
2022/06/20 03:25:35;;;;;;;6.97;3.63;;;;;;;18.58;58.31;100223.66;5043788;28;20040;-20
2022/06/20 03:28:00;;;;;;;4.18;3.03;;;;;;;18.56;58.60;100218.38;5061447;28;20093;-20
2022/06/20 03:30:28;;;;;;;4.68;3.58;;;;;;;18.56;58.42;100214.84;5056470;28;20025;-20
2022/06/20 03:32:53;;;;;;;6.45;3.63;;;;;;;18.56;58.78;100218.38;5065399;28;20086;-20
2022/06/20 03:35:19;;;;;;;6.30;3.58;;;;;;;18.53;58.40;100205.19;5064540;28;20028;-20
2022/06/20 03:37:44;;;;;;;6.03;4.05;;;;;;;18.51;58.65;100204.38;5049362;28;20036;-20
2022/06/20 03:40:10;;;;;;;7.00;3.88;;;;;;;18.51;58.72;100201.72;5050244;28;20028;-20
2022/06/20 03:42:36;;;;;;;6.28;3.90;;;;;;;18.53;59.08;100198.97;5053726;28;20086;-20
2022/06/20 03:45:03;;;;;;;4.97;3.42;;;;;;;18.50;58.48;100186.63;5061928;28;20476;-20
2022/06/20 03:47:39;;;;;;;6.60;3.88;;;;;;;18.49;58.77;100176.91;5056683;28;20392;-20
2022/06/20 03:50:09;;;;;;;4.50;3.80;;;;;;;18.45;58.72;100172.66;5053129;28;20013;-20
2022/06/20 03:52:40;;;;;;;6.90;4.15;;;;;;;18.44;59.85;100176.28;5067517;28;20024;-20
2022/06/20 03:55:09;;;;;;;4.88;3.67;;;;;;;18.51;59.21;100184.84;5044129;28;20284;-20
2022/06/20 03:57:43;;;;;;;4.47;3.67;;;;;;;18.46;59.30;100174.38;5057026;28;20028;-21
2022/06/20 04:00:11;;;;;;;5.65;3.55;;;;;;;18.44;58.89;100173.63;5062990;28;20024;-20
2022/06/20 04:02:38;;;;;;;4.65;3.65;;;;;;;18.44;58.93;100176.28;5049719;28;20112;-21
2022/06/20 04:05:18;;;;;;;6.25;3.45;;;;;;;18.47;59.30;100181.44;5067810;28;20020;-20
2022/06/20 04:07:48;;;;;;;5.95;4.00;;;;;;;18.51;59.01;100175.00;5061148;28;20373;-20
2022/06/20 04:13:07;;;;;;;6.45;4.07;;;;;;;18.51;59.61;100169.66;5056717;28;20628;-21
2022/06/20 04:15:40;;;;;;;3.65;3.30;;;;;;;18.52;59.81;100175.88;5067803;28;20024;-20
2022/06/20 04:18:30;;;;;;;6.47;4.43;;;;;;;18.51;59.94;100180.34;5056445;28;20029;-20
2022/06/20 04:21:17;;;;;;;4.75;3.80;;;;;;;18.52;59.55;100187.44;5066598;28;20206;-20
2022/06/20 04:23:54;;;;;;;5.25;4.05;;;;;;;18.54;59.60;100182.88;5067432;28;20029;-20
2022/06/20 04:26:26;;;;;;;5.90;3.88;;;;;;;18.52;59.72;100211.47;5066670;28;20094;-20
2022/06/20 04:29:16;;;;;;;6.07;4.20;;;;;;;18.46;59.58;100314.09;5066774;28;20063;-19
2022/06/20 04:31:43;;;;;;;7.25;4.53;;;;;;;18.43;61.87;100460.22;5064460;28;20024;-20
2022/06/20 04:34:32;;;;;;;6.63;5.20;;;;;;;18.32;62.92;100501.63;5065787;28;20312;-20
2022/06/20 04:37:10;;;;;;;9.52;5.78;;;;;;;18.27;63.25;100487.59;5063796;28;20029;-20
2022/06/20 04:39:45;;;;;;;8.07;6.47;;;;;;;18.24;63.54;100431.69;5062485;28;20029;-20
2022/06/20 04:42:18;;;;;;;10.50;6.80;;;;;;;18.29;63.10;100464.38;5061624;28;20104;-20
2022/06/20 04:44:54;;;;;;;10.70;6.80;;;;;;;18.29;63.22;100476.84;5046221;28;20416;-21
2022/06/20 04:47:36;;;;;;;8.65;6.43;;;;;;;18.24;62.18;100439.69;5033293;28;20681;-21
2022/06/20 04:50:03;;;;;;;7.35;6.53;;;;;;;18.21;61.88;100446.03;5046815;28;20028;-20
2022/06/20 04:52:29;;;;;;;11.40;6.13;;;;;;;18.20;61.47;100470.13;5066888;28;20097;-21
2022/06/20 04:54:55;;;;;;;9.55;6.63;;;;;;;18.19;61.54;100458.59;5066768;28;20032;-21
2022/06/20 04:57:21;;;;;;;7.35;6.00;;;;;;;18.18;61.61;100461.31;5066987;28;20111;-20
2022/06/20 04:59:47;;;;;;;9.95;6.60;;;;;;;18.15;61.15;100400.06;5070428;28;20024;-20
2022/06/20 05:02:16;;;;;;;11.82;6.80;;;;;;;18.13;61.24;100359.25;5073606;28;20026;-20
2022/06/20 05:04:43;;;;;;;8.00;6.38;;;;;;;18.12;61.27;100315.69;5065424;28;20180;-21
2022/06/20 05:07:18;;;;;;;9.73;5.97;;;;;;;18.09;61.79;100265.13;5029483;28;20033;-20
2022/06/20 05:10:01;;;;;;;8.27;6.18;;;;;;;18.08;60.96;100322.09;5046704;28;20055;-20
2022/06/20 05:12:35;;;;;;;9.88;6.88;;;;;;;18.09;61.94;100337.19;5067269;28;20380;-20
2022/06/20 05:15:16;;;;;;;7.07;6.25;;;;;;;18.05;61.32;100277.72;5060871;28;20348;-20
2022/06/20 05:17:42;;;;;;;11.63;6.93;;;;;;;18.03;61.26;100276.03;5066282;28;20020;-20
2022/06/20 05:20:18;;;;;;;9.80;6.70;;;;;;;18.03;61.28;100358.75;5055503;28;20124;-20
2022/06/20 05:22:49;;;;;;;9.50;6.82;;;;;;;18.02;63.10;100360.59;5070892;28;20027;-20
2022/06/20 05:25:18;;;;;;;9.93;6.22;;;;;;;17.99;61.41;100304.69;5068657;28;20390;-21
2022/06/20 05:27:52;;;;;;;11.40;6.72;;;;;;;18.00;61.80;100297.56;5059694;28;20071;-20
2022/06/20 05:30:19;;;;;;;9.55;6.50;;;;;;;17.98;61.81;100297.63;5048125;28;20021;-20
2022/06/20 05:32:56;;;;;;;10.00;6.05;;;;;;;17.96;61.51;100352.84;5064556;28;20648;-20
2022/06/20 05:35:30;;;;;;;7.38;6.20;;;;;;;17.97;62.31;100348.38;5067396;28;20598;-20
2022/06/20 05:38:02;;;;;;;9.98;6.65;;;;;;;17.92;61.36;100321.91;5060288;28;20031;-20
2022/06/20 05:40:37;;;;;;;9.35;6.28;;;;;;;17.92;61.42;100313.91;5069467;28;20115;-20
2022/06/20 05:43:02;;;;;;;6.85;5.88;;;;;;;17.91;61.41;100296.19;5060416;28;20512;-20
2022/06/20 05:45:29;;;;;;;6.50;5.82;;;;;;;17.91;61.50;100313.03;5070788;28;20107;-20
2022/06/20 05:47:58;;;;;;;8.23;6.35;;;;;;;17.90;61.97;100318.44;5064982;28;20027;-20
2022/06/20 05:50:38;;;;;;;8.30;5.95;;;;;;;17.90;61.93;100302.44;5034544;28;20028;-20
2022/06/20 05:53:07;;;;;;;8.77;6.00;;;;;;;17.90;62.29;100315.75;5049727;28;20012;-20
2022/06/20 05:55:39;;;;;;;5.95;5.25;;;;;;;17.87;61.54;100303.44;5043116;28;20032;-20
2022/06/20 05:58:05;;;;;;;7.13;5.15;;;;;;;17.86;62.45;100290.16;5068665;28;20146;-20
2022/06/20 06:00:34;;;;;;;7.68;5.57;;;;;;;17.85;62.56;100280.44;5056239;28;20039;-20
2022/06/20 06:03:05;;;;;;;6.35;5.28;;;;;;;17.83;61.82;100269.84;5069381;28;20024;-20
2022/06/20 06:05:37;;;;;;;5.22;4.72;;;;;;;17.83;62.39;100268.06;5070061;28;20143;-20
2022/06/20 06:08:11;;;;;;;5.40;4.75;;;;;;;17.85;61.68;100264.44;5069480;28;20440;-20
2022/06/20 06:10:45;;;;;;;5.78;5.20;;;;;;;17.83;61.52;100249.38;5055729;28;20506;-20
2022/06/20 06:13:11;;;;;;;5.05;4.60;;;;;;;17.83;61.77;100243.16;5056055;28;20388;-20
2022/06/20 06:15:41;;;;;;;5.20;4.70;;;;;;;17.87;61.84;100230.56;5070207;28;20486;-20
2022/06/20 06:18:13;;;;;;;6.45;5.60;;;;;;;17.85;61.72;100240.44;5058420;28;20040;-20
2022/06/20 06:20:43;;;;;;;6.72;4.95;;;;;;;17.87;62.09;100239.41;5069071;28;20044;-20
2022/06/20 06:23:10;;;;;;;6.13;4.88;;;;;;;17.90;61.98;100209.06;5068678;28;20511;-20
2022/06/20 06:25:39;;;;;;;5.00;4.53;;;;;;;17.92;62.90;100173.41;5042433;28;20052;-20
2022/06/20 06:28:07;;;;;;;5.28;4.30;;;;;;;17.93;61.68;100192.91;5060702;28;20063;-20
2022/06/20 06:30:37;;;;;;;5.40;4.80;;;;;;;17.96;63.07;100192.78;5058042;28;20032;-20
2022/06/20 06:33:09;;;;;;;5.90;4.30;;;;;;;17.97;62.51;100180.31;5055991;28;20013;-20
2022/06/20 06:35:41;;;;;;;4.95;4.45;;;;;;;17.97;62.61;100180.31;5068672;28;20455;-20
2022/06/20 06:38:12;;;;;;;5.55;5.05;;;;;;;17.98;62.07;100179.38;5066444;28;20032;-20
2022/06/20 06:40:43;;;;;;;5.15;4.72;;;;;;;17.98;62.89;100190.91;5063594;28;20028;-20
2022/06/20 06:43:37;;;;;;;5.65;5.13;;;;;;;18.01;62.81;100214.75;5068828;28;20428;-21
2022/06/20 06:46:03;;;;;;;5.70;5.13;;;;;;;18.01;62.27;100228.09;5070871;28;20016;-20
2022/06/20 06:49:05;;;;;;;7.22;6.53;;;;;;;18.02;62.44;100224.50;5068712;28;20062;-21
2022/06/20 06:51:43;;;;;;;6.93;6.22;;;;;;;18.05;62.95;100232.38;5047217;28;20047;-21
2022/06/20 06:54:15;;;;;;;6.95;6.25;;;;;;;18.06;63.04;100265.25;5066144;28;20048;-20
2022/06/20 06:56:45;;;;;;;7.47;6.70;;;;;;;18.06;62.25;100276.78;5065345;28;20114;-20
2022/06/20 06:59:14;;;;;;;6.30;5.82;;;;;;;18.05;62.12;100277.72;5063397;28;20476;-20
2022/06/20 07:01:45;;;;;;;7.43;6.72;;;;;;;18.05;61.72;100280.41;5062898;28;20035;-20
2022/06/20 07:04:14;;;;;;;;;;;;;;;18.06;63.26;100298.13;5058417;28;20031;-20
2022/06/20 07:07:16;;;;;;;7.40;6.68;;;;;;;18.07;63.11;100329.22;5069308;28;20015;-20
2022/06/20 07:09:48;;;;;;;7.95;6.78;;;;;;;18.07;62.68;100323.00;5073160;28;20031;-21
2022/06/20 07:12:24;;;;;;;6.50;6.00;;;;;;;18.06;63.47;100298.13;5069045;28;20074;-20
2022/06/20 07:15:02;;;;;;;7.38;6.68;;;;;;;18.07;62.76;100299.84;5054321;28;20032;-21
2022/06/20 07:17:40;;;;;;;6.63;6.13;;;;;;;18.06;63.08;100260.78;5064738;28;20020;-20
2022/06/20 07:20:07;;;;;;;8.02;7.28;;;;;;;18.08;62.97;100258.03;5067275;28;20027;-20
2022/06/20 07:22:32;;;;;;;8.85;8.05;;;;;;;18.09;63.00;100259.78;5070905;28;20275;-20
2022/06/20 07:24:57;;;;;;;7.93;7.10;;;;;;;18.13;64.05;100257.81;5057803;28;20114;-20
2022/06/20 07:27:46;;;;;;;7.40;6.75;;;;;;;18.17;64.37;100270.97;5056251;28;20048;-20
2022/06/20 07:30:15;;;;;;;8.50;7.65;;;;;;;18.20;63.73;100262.81;5064467;28;20097;-20
2022/06/20 07:32:46;;;;;;;7.63;6.93;;;;;;;18.24;64.84;100271.53;5068523;28;20046;-21
2022/06/20 07:35:19;;;;;;;7.80;7.13;;;;;;;18.29;64.60;100301.56;5067832;28;20103;-21
2022/06/20 07:38:00;;;;;;;7.22;6.53;;;;;;;18.31;63.30;100297.00;5054141;28;20028;-20
2022/06/20 07:40:37;;;;;;;7.88;7.10;;;;;;;18.33;63.56;100304.94;5065952;28;20039;-20
2022/06/20 07:43:14;;;;;;;6.90;6.30;;;;;;;18.36;63.68;100333.28;5066496;28;20067;-20
2022/06/20 07:45:42;;;;;;;7.13;6.53;;;;;;;18.37;64.22;100359.06;5066298;28;20024;-20
2022/06/20 07:48:19;;;;;;;7.60;6.90;;;;;;;18.37;63.94;100359.06;5060343;28;20419;-20
2022/06/20 07:50:54;;;;;;;7.13;6.43;;;;;;;18.36;63.40;100349.28;5047685;28;20039;-20
2022/06/20 07:53:36;;;;;;;9.02;8.13;;;;;;;18.34;63.13;100347.56;5069215;28;20028;-20
2022/06/20 07:56:06;;;;;;;9.65;8.75;;;;;;;18.37;63.83;100359.91;5046507;28;20491;-20
2022/06/20 07:58:35;;;;;;;9.02;8.13;;;;;;;18.36;63.33;100358.19;5058408;28;20028;-20
2022/06/20 08:01:06;;;;;;;9.45;8.05;;;;;;;18.37;63.88;100327.88;5060078;28;20130;-20
2022/06/20 08:03:38;;;;;;;10.40;9.30;;;;;;;18.37;64.41;100321.69;5066958;28;20016;-20
2022/06/20 08:06:30;;;;;;;10.57;9.57;;;;;;;18.36;63.79;100336.81;5067568;28;20024;-20
2022/06/20 08:09:00;;;;;;;8.50;7.70;;;;;;;18.36;63.08;100342.16;5066157;28;20174;-20
2022/06/20 08:12:13;;;;;;;9.93;8.70;;;;;;;18.34;63.47;100350.25;5060955;28;20103;-20
2022/06/20 08:14:41;;;;;;;9.15;8.25;;;;;;;18.34;64.01;100355.59;5043382;28;20326;-20
2022/06/20 08:17:08;;;;;;;8.02;7.30;;;;;;;18.34;63.87;100331.56;5067456;28;20016;-20
2022/06/20 08:19:34;;;;;;;8.73;7.82;;;;;;;18.32;63.41;100309.44;5033041;28;20484;-20
2022/06/20 08:22:04;;;;;;;7.55;6.32;;;;;;;18.31;62.91;100299.66;5067668;28;20024;-20
2022/06/20 08:24:48;;;;;;;7.05;6.40;;;;;;;18.33;63.89;100308.47;5058929;28;20120;-20
2022/06/20 08:27:38;;;;;;;6.70;6.10;;;;;;;18.36;64.34;100309.25;5062962;28;20021;-21
2022/06/20 08:30:09;;;;;;;6.45;5.85;;;;;;;18.36;63.84;100314.59;5066371;28;20033;-20
2022/06/20 08:32:53;;;;;;;6.32;5.72;;;;;;;18.35;63.47;100313.75;5067039;28;20024;-20
2022/06/20 08:35:42;;;;;;;6.95;6.25;;;;;;;18.38;63.91;100323.41;5066513;28;20031;-20
2022/06/20 08:38:23;;;;;;;5.75;5.25;;;;;;;18.40;63.79;100343.75;5066314;28;20072;-20
2022/06/20 08:40:48;;;;;;;6.60;5.03;;;;;;;18.43;64.21;100358.75;5066127;28;20163;-20
2022/06/20 08:43:49;;;;;;;6.33;4.97;;;;;;;18.44;64.28;100360.50;5067521;28;20111;-20
2022/06/20 08:46:50;;;;;;;5.60;4.90;;;;;;;18.46;63.86;100375.50;5062523;28;20263;-20
2022/06/20 08:49:39;;;;;;;7.30;5.40;;;;;;;18.47;63.37;100368.34;5067073;28;20107;-20
2022/06/20 08:52:20;;;;;;;5.10;4.70;;;;;;;18.49;64.51;100382.50;5066946;28;20511;-21
2022/06/20 08:54:45;;;;;;;4.63;4.22;;;;;;;18.50;64.14;100372.69;5056478;28;20397;-20
2022/06/20 08:57:15;;;;;;;4.53;4.13;;;;;;;18.50;63.88;100373.53;5067064;28;20021;-20
2022/06/20 09:00:00;;;;;;;4.18;3.85;;;;;;;18.50;63.68;100378.88;5066737;28;20111;-20
2022/06/20 09:02:44;;;;;;;4.68;3.97;;;;;;;18.50;63.96;100394.06;5054555;28;20028;-21
2022/06/20 09:05:34;;;;;;;4.43;3.25;;;;;;;18.48;63.09;100398.59;5062011;28;20039;-21
2022/06/20 09:08:33;;;;;;;3.58;3.20;;;;;;;18.49;63.74;100400.31;5044646;28;20115;-20
2022/06/20 09:11:19;;;;;;;3.03;2.75;;;;;;;18.49;63.55;100401.19;5066915;28;20029;-20
2022/06/20 09:14:13;;;;;;;3.50;2.88;;;;;;;18.47;63.12;100397.72;5064152;28;20480;-20
2022/06/20 09:16:38;;;;;;;3.47;3.17;;;;;;;18.44;63.57;100404.06;5066840;28;20052;-20
2022/06/20 09:19:26;;;;;;;4.23;2.87;;;;;;;18.44;63.60;100401.41;5068131;28;20677;-20
2022/06/20 09:22:24;;;;;;;2.90;2.70;;;;;;;18.42;63.98;100408.63;5055117;28;20279;-20
2022/06/20 09:25:13;;;;;;;3.30;3.00;;;;;;;18.43;63.92;100374.78;5052080;28;20480;-20
2022/06/20 09:27:54;;;;;;;3.05;2.75;;;;;;;18.41;63.75;100382.84;5054941;28;20031;-20
2022/06/20 09:30:26;;;;;;;2.85;2.65;;;;;;;18.39;63.71;100379.41;5064392;28;20495;-20
2022/06/20 09:33:18;;;;;;;2.95;2.72;;;;;;;18.41;63.94;100374.00;5067056;28;20036;-20
2022/06/20 09:35:59;;;;;;;2.42;2.30;;;;;;;18.39;63.62;100370.50;5068091;28;20443;-20
2022/06/20 09:38:31;;;;;;;;;;;;;;;18.37;63.12;100378.59;5067836;28;20025;-20
2022/06/20 09:41:04;;;;;;;3.22;2.55;;;;;;;18.39;63.55;100373.19;5067373;28;19951;-20
2022/06/20 09:43:37;;;;;;;3.00;2.70;;;;;;;18.37;63.37;100391.09;5063450;28;20526;-20
2022/06/20 09:46:13;;;;;;;3.20;2.42;;;;;;;18.36;63.63;100406.22;5062222;28;20048;-20
2022/06/20 09:49:16;;;;;;;2.67;1.98;;;;;;;18.36;63.41;100416.91;5058234;28;20055;-20
2022/06/20 09:51:54;;;;;;;1.75;1.65;;;;;;;18.33;63.55;100404.59;5066508;28;20039;-21
2022/06/20 09:54:41;;;;;;;2.33;1.95;;;;;;;18.31;63.27;100410.94;5065487;28;20035;-20
2022/06/20 09:57:18;;;;;;;1.55;1.45;;;;;;;18.27;62.79;100418.19;5032291;28;20075;-21
2022/06/20 10:00:16;;;;;;;1.98;1.50;;;;;;;18.26;63.08;100426.28;5065159;28;20029;-21
2022/06/20 10:02:47;;;;;;;1.95;1.85;;;;;;;18.21;62.74;100429.16;5052557;28;20031;-20
2022/06/20 10:05:42;;;;;;;1.60;1.50;;;;;;;18.16;62.92;100425.81;5066339;28;20070;-21
2022/06/20 10:08:35;;;;;;;1.95;1.48;;;;;;;18.13;62.87;100440.19;5052547;28;20087;-20
2022/06/20 10:11:21;;;;;;;1.85;1.30;;;;;;;18.11;62.97;100443.84;5053457;28;20442;-20
2022/06/20 10:14:03;;;;;;;1.55;1.45;;;;;;;18.05;63.19;100440.50;5074981;28;20021;-21
2022/06/20 10:17:17;;;;;;;1.42;1.33;;;;;;;18.03;62.95;100445.03;5068730;28;20178;-21
2022/06/20 10:19:49;;;;;;;1.25;1.20;;;;;;;17.98;63.27;100457.72;4978982;28;20027;-20
2022/06/20 10:22:44;;;;;;;1.30;1.20;;;;;;;17.93;63.09;100455.25;5069695;28;20025;-20
2022/06/20 10:25:28;;;;;;;1.50;1.40;;;;;;;17.89;63.06;100461.66;5067736;28;20097;-20
2022/06/20 10:28:12;;;;;;;1.40;1.30;;;;;;;17.88;63.03;100469.72;5063540;28;20233;-21
2022/06/20 10:30:46;;;;;;;1.50;1.40;;;;;;;17.82;63.04;100465.50;5069335;28;20115;-20
2022/06/20 10:33:29;;;;;;;1.52;1.40;;;;;;;17.75;63.05;100456.91;5057676;28;20108;-21
2022/06/20 10:36:26;;;;;;;2.17;1.40;;;;;;;17.74;62.90;100465.81;5068567;28;20534;-20
2022/06/20 10:38:57;;;;;;;1.80;1.70;;;;;;;17.72;62.73;100465.03;5058627;28;20025;-20
2022/06/20 10:42:04;;;;;;;1.98;1.55;;;;;;;17.68;62.72;100464.28;5068411;28;20021;-20
2022/06/20 10:44:59;;;;;;;1.50;1.40;;;;;;;17.66;62.81;100478.63;5061885;28;20037;-20
2022/06/20 10:48:15;;;;;;;1.52;1.42;;;;;;;17.65;62.77;100474.22;5069278;28;20099;-20
2022/06/20 10:50:40;;;;;;;2.08;1.85;;;;;;;17.62;62.84;100485.00;5038948;28;20058;-20
2022/06/20 10:53:06;;;;;;;2.40;2.20;;;;;;;17.60;63.05;100484.22;5068661;28;20543;-20
2022/06/20 10:55:50;;;;;;;5.07;2.35;;;;;;;17.59;62.88;100506.47;5068120;28;20833;-20
2022/06/20 10:59:03;;;;;;;2.45;2.28;;;;;;;17.56;62.67;100503.00;5069547;28;20027;-20
2022/06/20 11:01:52;;;;;;;2.80;2.60;;;;;;;17.54;63.05;100494.19;5048162;28;20479;-19
2022/06/20 11:04:49;;;;;;;3.28;2.47;;;;;;;17.53;62.97;100505.78;5060091;28;20107;-20
2022/06/20 11:07:14;;;;;;;3.45;3.15;;;;;;;17.52;63.13;100513.84;5069222;28;20024;-20
2022/06/20 11:10:01;;;;;;;3.30;3.00;;;;;;;17.52;63.21;100527.19;5056755;28;20050;-20
2022/06/20 11:12:40;;;;;;;3.65;3.35;;;;;;;17.49;63.18;100533.53;5068450;28;20250;-20
2022/06/20 11:15:10;;;;;;;4.43;4.07;;;;;;;17.46;63.19;100549.63;5067860;28;20102;-20
2022/06/20 11:17:57;;;;;;;3.80;3.50;;;;;;;17.42;63.20;100540.03;5057226;28;20024;-20
2022/06/20 11:20:31;;;;;;;4.47;4.00;;;;;;;17.41;63.17;100547.13;5064211;28;20520;-20
2022/06/20 11:23:39;;;;;;;4.35;3.95;;;;;;;17.39;63.25;100561.47;5049856;28;20047;-20
2022/06/20 11:26:14;;;;;;;4.05;3.65;;;;;;;17.36;63.45;100564.25;5055935;28;20040;-20
2022/06/20 11:29:01;;;;;;;4.20;3.70;;;;;;;17.34;63.21;100582.13;5049722;28;20439;-21
2022/06/20 11:31:30;;;;;;;4.07;3.78;;;;;;;17.29;63.28;100591.16;5064041;28;20018;-20
2022/06/20 11:34:00;;;;;;;3.83;3.53;;;;;;;17.27;63.24;100593.00;5068519;28;20029;-20
2022/06/20 11:36:30;;;;;;;;;;;;;;;17.24;63.36;100593.13;5050320;28;20054;-20
2022/06/20 11:39:09;;;;;;;4.00;3.45;;;;;;;17.22;63.08;100595.00;5068295;28;19924;-21
2022/06/20 11:41:37;;;;;;;3.58;3.25;;;;;;;17.22;63.34;100594.09;5077370;28;20043;-20
2022/06/20 11:44:20;;;;;;;4.43;3.10;;;;;;;17.19;63.47;100600.44;5067883;28;20119;-20
2022/06/20 11:46:55;;;;;;;2.70;2.50;;;;;;;17.13;63.51;100606.84;5061225;28;20074;-20
2022/06/20 11:49:40;;;;;;;2.63;2.42;;;;;;;17.10;63.21;100608.78;5067953;28;20047;-20
2022/06/20 11:54:46;;;;;;;4.35;2.38;;;;;;;17.07;63.45;100622.22;5061400;28;20060;-22
2022/06/20 11:57:26;;;;;;;2.65;2.40;;;;;;;17.03;63.45;100621.41;5064631;28;20040;-22
2022/06/20 12:00:07;;;;;;;2.03;1.67;;;;;;;17.00;63.62;100626.84;5066726;28;20429;-23
2022/06/20 12:02:57;;;;;;;1.70;1.60;;;;;;;16.96;63.52;100626.09;5061491;28;20508;-23
2022/06/20 12:05:32;;;;;;;1.75;1.60;;;;;;;16.93;63.16;100628.88;5044937;28;20239;-23
2022/06/20 12:08:25;;;;;;;2.15;1.88;;;;;;;16.90;63.14;100643.19;5043221;28;20036;-23
2022/06/20 12:10:59;;;;;;;1.30;1.20;;;;;;;16.88;63.10;100646.81;5047070;28;20062;-23
2022/06/20 12:13:45;;;;;;;1.77;1.67;;;;;;;16.87;63.08;100642.44;5046319;28;20020;-23